Time;durP1;ratioP1;P1;durP2;ratioP2;P2;SDS_P1;SDS_P2;PMS_P1;PMS_P2;Temp;Humidity;BMP_temperature;BMP_pressure;BME280_temperature;BME280_humidity;BME280_pressure;Samples;Min_cycle;Max_cycle;Signal;HPM_P1;HPM_P2
2022/10/27 00:01:56;;;;;;;11.40;5.93;;;;;;;11.76;100.00;102012.72;5071285;28;20084;-51
2022/10/27 00:04:26;;;;;;;11.88;6.45;;;;;;;11.79;100.00;102020.50;5070435;28;20386;-52
2022/10/27 00:06:55;;;;;;;11.85;6.57;;;;;;;11.83;100.00;102023.81;5070435;28;20049;-53
2022/10/27 00:09:24;;;;;;;11.63;6.28;;;;;;;11.86;100.00;102023.63;5069321;28;20407;-53
2022/10/27 00:11:55;;;;;;;10.63;6.20;;;;;;;11.90;100.00;102029.63;5070093;28;20040;-53
2022/10/27 00:14:23;;;;;;;12.40;5.82;;;;;;;11.90;100.00;102029.63;5073181;28;20048;-52
2022/10/27 00:16:53;;;;;;;11.10;6.40;;;;;;;11.93;100.00;102029.44;5073697;28;20067;-51
2022/10/27 00:19:22;;;;;;;11.75;6.32;;;;;;;11.92;100.00;102020.69;5072367;28;20110;-51
2022/10/27 00:21:51;;;;;;;10.30;6.13;;;;;;;11.95;100.00;102022.38;5073963;28;20056;-51
2022/10/27 00:24:21;;;;;;;11.73;6.43;;;;;;;11.97;100.00;102023.13;5073781;28;20044;-52
2022/10/27 00:26:49;;;;;;;11.27;5.85;;;;;;;11.96;100.00;102019.63;5073522;28;20049;-50
2022/10/27 00:29:17;;;;;;;12.05;6.07;;;;;;;11.96;100.00;102014.38;5073738;28;20047;-51
2022/10/27 00:31:45;;;;;;;9.75;6.03;;;;;;;11.95;100.00;102019.72;5073283;28;20090;-53
2022/10/27 00:34:13;;;;;;;9.18;6.00;;;;;;;11.93;100.00;102024.19;5073157;28;20033;-53
2022/10/27 00:36:41;;;;;;;12.93;5.85;;;;;;;11.92;100.00;102025.13;5071965;28;20048;-59
2022/10/27 00:39:10;;;;;;;8.98;5.05;;;;;;;11.88;100.00;102027.06;5067287;28;20119;-57
2022/10/27 00:41:41;;;;;;;11.10;5.55;;;;;;;11.89;100.00;102030.53;5069040;28;20048;-58
2022/10/27 00:44:31;;;;;;;10.18;5.00;;;;;;;11.87;100.00;102030.63;5069050;28;20477;-57
2022/10/27 00:47:04;;;;;;;8.98;5.30;;;;;;;11.86;100.00;102035.97;5072251;28;20052;-57
2022/10/27 00:49:35;;;;;;;11.38;5.30;;;;;;;11.80;100.00;102039.78;5071543;28;20514;-57
2022/10/27 00:52:10;;;;;;;11.63;5.82;;;;;;;11.79;100.00;102038.06;5068697;28;20518;-56
2022/10/27 00:54:41;;;;;;;12.18;5.93;;;;;;;11.78;100.00;102047.78;5067615;28;20105;-57
2022/10/27 00:57:12;;;;;;;13.45;6.03;;;;;;;11.76;100.00;102048.78;5068080;28;20098;-50
2022/10/27 00:59:41;;;;;;;8.80;5.30;;;;;;;11.70;100.00;102054.34;5069034;28;20442;-50
2022/10/27 01:02:10;;;;;;;8.65;4.85;;;;;;;11.67;100.00;102055.38;5073033;28;20398;-52
2022/10/27 01:04:45;;;;;;;11.57;5.82;;;;;;;11.68;100.00;102046.53;5071474;28;20056;-52
2022/10/27 01:07:16;;;;;;;11.45;5.65;;;;;;;11.66;100.00;102053.69;5072990;28;20495;-51
2022/10/27 01:09:45;;;;;;;11.95;5.70;;;;;;;11.61;100.00;102056.53;5072495;28;20098;-57
2022/10/27 01:12:14;;;;;;;12.50;6.35;;;;;;;11.63;100.00;102053.81;5072875;28;20474;-50
2022/10/27 01:14:43;;;;;;;9.88;5.10;;;;;;;11.65;100.00;102059.88;5072734;28;20132;-54
2022/10/27 01:17:24;;;;;;;10.35;5.35;;;;;;;11.60;100.00;102054.84;5072640;28;20491;-51
2022/10/27 01:20:29;;;;;;;8.85;5.10;;;;;;;11.62;100.00;102055.59;5068663;28;20045;-53
2022/10/27 01:23:03;;;;;;;10.27;5.63;;;;;;;11.61;100.00;102058.31;5070159;28;20036;-52
2022/10/27 01:26:00;;;;;;;9.57;5.10;;;;;;;11.60;100.00;102062.75;5072484;28;20093;-50
2022/10/27 01:29:15;;;;;;;9.38;5.13;;;;;;;11.59;100.00;102063.66;5071341;28;20109;-50
2022/10/27 01:31:50;;;;;;;9.30;5.18;;;;;;;11.55;100.00;102062.13;5072294;28;20090;-52
2022/10/27 01:34:29;;;;;;;11.30;5.10;;;;;;;11.55;100.00;102056.84;5068908;28;20071;-52
2022/10/27 01:37:04;;;;;;;9.25;5.38;;;;;;;11.52;100.00;102066.66;5069435;28;20457;-52
2022/10/27 01:39:38;;;;;;;8.52;5.07;;;;;;;11.48;100.00;102061.56;5070947;28;20055;-51
2022/10/27 01:42:09;;;;;;;8.57;4.93;;;;;;;11.49;100.00;102068.53;5072228;28;20049;-52
2022/10/27 01:44:43;;;;;;;9.70;5.30;;;;;;;11.46;100.00;102068.69;5072315;28;20044;-52
2022/10/27 01:47:14;;;;;;;11.98;5.32;;;;;;;11.44;100.00;102059.19;5072554;28;20395;-57
2022/10/27 01:49:43;;;;;;;9.45;4.82;;;;;;;11.38;100.00;102068.19;5071767;28;20044;-58
2022/10/27 01:52:43;;;;;;;10.80;4.93;;;;;;;11.35;100.00;102062.25;5072076;28;20119;-57
2022/10/27 01:55:17;;;;;;;9.38;5.07;;;;;;;11.31;100.00;102057.13;5072315;28;20101;-52
2022/10/27 01:58:02;;;;;;;8.85;5.13;;;;;;;11.33;100.00;102068.44;5071882;28;20049;-52
2022/10/27 02:00:43;;;;;;;8.70;5.15;;;;;;;11.30;100.00;102071.22;5070141;28;20079;-53
2022/10/27 02:03:17;;;;;;;9.98;4.20;;;;;;;11.30;100.00;102078.25;5068072;28;20052;-53
2022/10/27 02:05:52;;;;;;;9.93;4.85;;;;;;;11.30;100.00;102073.88;5068052;28;20048;-52
2022/10/27 02:08:28;;;;;;;9.25;4.78;;;;;;;11.29;100.00;102072.16;5068969;28;20106;-49
2022/10/27 02:11:00;;;;;;;12.25;5.25;;;;;;;11.29;100.00;102064.25;5071700;28;20044;-50
2022/10/27 02:13:29;;;;;;;;;;;;;;;11.30;100.00;102071.22;5072264;28;20093;-52
2022/10/27 02:16:01;;;;;;;7.53;4.72;;;;;;;11.31;100.00;102074.72;5071953;28;20019;-52
2022/10/27 02:18:32;;;;;;;;;;;;;;;11.28;100.00;102059.91;5072149;28;20053;-57
2022/10/27 02:21:05;;;;;;;7.75;4.55;;;;;;;11.29;100.00;102066.88;5068610;28;19968;-57
2022/10/27 02:23:35;;;;;;;12.10;5.35;;;;;;;11.29;100.00;102063.41;5070145;28;20041;-57
2022/10/27 02:26:11;;;;;;;8.60;4.53;;;;;;;11.29;100.00;102050.25;5072124;28;20047;-57
2022/10/27 02:28:44;;;;;;;15.40;5.45;;;;;;;11.33;100.00;102055.28;5071956;28;20049;-56
2022/10/27 02:31:14;;;;;;;13.75;5.50;;;;;;;11.31;100.00;102049.22;5071861;28;20045;-56
2022/10/27 02:33:44;;;;;;;9.93;4.88;;;;;;;11.30;100.00;102052.78;5070223;28;20036;-57
2022/10/27 02:36:12;;;;;;;10.25;5.40;;;;;;;11.28;100.00;102049.38;5067578;28;20495;-57
2022/10/27 02:38:40;;;;;;;10.50;5.47;;;;;;;11.27;100.00;102062.63;5069925;28;20411;-59
2022/10/27 02:41:08;;;;;;;9.90;4.85;;;;;;;11.28;100.00;102052.00;5067563;28;20056;-58
2022/10/27 02:43:36;;;;;;;9.77;5.30;;;;;;;11.30;100.00;102058.06;5068356;28;20044;-58
2022/10/27 02:46:04;;;;;;;8.18;4.70;;;;;;;11.26;100.00;102061.78;5071709;28;20094;-58
2022/10/27 02:48:32;;;;;;;12.38;5.93;;;;;;;11.25;100.00;102056.59;5070029;28;20044;-58
2022/10/27 02:51:02;;;;;;;11.35;5.05;;;;;;;11.26;100.00;102045.97;5068184;28;20052;-58
2022/10/27 02:53:30;;;;;;;8.80;5.28;;;;;;;11.27;100.00;102047.66;5069604;28;20044;-58
2022/10/27 02:55:58;;;;;;;11.98;5.97;;;;;;;11.26;100.00;102043.34;5067622;28;20057;-58
2022/10/27 02:58:26;;;;;;;11.50;5.45;;;;;;;11.26;100.00;102040.72;5068147;28;20048;-58
2022/10/27 03:00:57;;;;;;;11.57;5.53;;;;;;;11.25;100.00;102039.00;5068935;28;20151;-56
2022/10/27 03:03:25;;;;;;;9.57;5.60;;;;;;;11.26;100.00;102035.44;5073709;28;20040;-52
2022/10/27 03:05:53;;;;;;;9.32;5.90;;;;;;;11.24;100.00;102042.56;5071979;28;20491;-52
2022/10/27 03:08:23;;;;;;;14.48;6.47;;;;;;;11.23;100.00;102034.72;5069953;28;20076;-51
2022/10/27 03:10:51;;;;;;;11.13;6.93;;;;;;;11.23;100.00;102030.31;5074385;28;20044;-52
2022/10/27 03:13:19;;;;;;;13.55;7.95;;;;;;;11.25;100.00;102032.88;5074384;28;20518;-50
2022/10/27 03:15:47;;;;;;;12.93;8.05;;;;;;;11.26;100.00;102027.53;5074449;28;20127;-49
2022/10/27 03:18:15;;;;;;;13.82;8.07;;;;;;;11.29;100.00;102024.75;5074882;28;20106;-49
2022/10/27 03:20:45;;;;;;;13.48;7.72;;;;;;;11.32;100.00;102031.66;5074790;28;20098;-50
2022/10/27 03:23:14;;;;;;;13.23;8.90;;;;;;;11.30;100.00;102031.72;5070517;28;20041;-52
2022/10/27 03:25:45;;;;;;;15.20;9.25;;;;;;;11.30;100.00;102031.72;5070103;28;20052;-50
2022/10/27 03:28:15;;;;;;;14.65;9.15;;;;;;;11.30;100.00;102026.47;5074719;28;20059;-54
2022/10/27 03:30:43;;;;;;;16.27;9.80;;;;;;;11.31;100.00;102029.94;5074760;28;20059;-51
2022/10/27 03:33:11;;;;;;;13.70;9.85;;;;;;;11.33;100.00;102023.66;5074608;28;20102;-52
2022/10/27 03:35:39;;;;;;;17.48;9.77;;;;;;;11.33;100.00;102025.47;5074642;28;20094;-53
2022/10/27 03:38:07;;;;;;;14.70;8.73;;;;;;;11.37;100.00;102026.13;5074435;28;20439;-49
2022/10/27 03:40:35;;;;;;;17.00;9.25;;;;;;;11.38;100.00;102026.06;5072935;28;20529;-52
2022/10/27 03:43:05;;;;;;;14.40;8.80;;;;;;;11.39;100.00;102030.41;5070514;28;20066;-51
2022/10/27 03:45:37;;;;;;;13.95;8.60;;;;;;;11.42;100.00;102029.41;5071330;28;20040;-51
2022/10/27 03:48:07;;;;;;;14.20;8.60;;;;;;;11.39;100.00;102030.41;5070735;28;20457;-52
2022/10/27 03:50:35;;;;;;;10.30;7.25;;;;;;;11.35;100.00;102039.38;5074406;28;20053;-52
2022/10/27 03:53:06;;;;;;;17.10;8.75;;;;;;;11.32;100.00;102032.50;5074651;28;20816;-51
2022/10/27 03:55:35;;;;;;;12.90;7.72;;;;;;;11.27;100.00;102031.84;5074584;28;20064;-57
2022/10/27 03:58:08;;;;;;;13.52;8.50;;;;;;;11.23;100.00;102022.41;5072037;28;20503;-57
2022/10/27 04:00:43;;;;;;;12.88;8.48;;;;;;;11.19;100.00;102022.63;5070680;28;20095;-57
2022/10/27 04:03:11;;;;;;;11.98;7.28;;;;;;;11.16;100.00;102028.91;5072956;28;20056;-56
2022/10/27 04:05:39;;;;;;;14.82;8.18;;;;;;;11.13;100.00;102021.16;5074206;28;20053;-57
2022/10/27 04:08:07;;;;;;;14.43;7.78;;;;;;;11.12;100.00;102022.94;5071488;28;20156;-57
2022/10/27 04:10:35;;;;;;;12.57;8.30;;;;;;;11.11;100.00;102031.78;5069342;28;20102;-57
2022/10/27 04:13:08;;;;;;;11.93;8.27;;;;;;;11.09;100.00;102020.44;5071339;28;20049;-57
2022/10/27 04:15:36;;;;;;;16.98;8.23;;;;;;;11.10;100.00;102023.97;5069784;28;20526;-49
2022/10/27 04:18:04;;;;;;;15.95;7.90;;;;;;;11.05;100.00;102031.22;5070789;28;20053;-56
2022/10/27 04:20:32;;;;;;;12.48;7.68;;;;;;;11.03;100.00;102033.94;5073006;28;20059;-56
2022/10/27 04:23:01;;;;;;;13.07;7.32;;;;;;;11.03;100.00;102039.19;5073301;28;20053;-56
2022/10/27 04:25:29;;;;;;;13.20;7.93;;;;;;;10.96;100.00;102040.38;5073202;28;20044;-57
2022/10/27 04:28:04;;;;;;;14.50;8.32;;;;;;;10.93;100.00;102035.28;5069514;28;20671;-57
2022/10/27 04:30:34;;;;;;;12.52;7.57;;;;;;;10.93;100.00;102035.28;5069959;28;20536;-56
2022/10/27 04:33:03;;;;;;;13.70;7.38;;;;;;;10.90;100.00;102038.06;5069280;28;20495;-56
2022/10/27 04:35:31;;;;;;;12.25;6.72;;;;;;;10.88;100.00;102046.03;5068873;28;20041;-56
2022/10/27 04:38:06;;;;;;;11.15;7.13;;;;;;;10.85;100.00;102047.94;5069701;28;20455;-57
2022/10/27 04:40:34;;;;;;;13.70;7.38;;;;;;;10.81;100.00;102041.97;5073536;28;20430;-57
2022/10/27 04:43:02;;;;;;;12.20;7.60;;;;;;;10.81;100.00;102041.97;5071567;28;20101;-56
2022/10/27 04:45:31;;;;;;;12.52;7.55;;;;;;;10.77;100.00;102046.53;5069665;28;20458;-56
2022/10/27 04:48:00;;;;;;;11.40;7.10;;;;;;;10.74;100.00;102051.94;5071672;28;20078;-57
2022/10/27 04:50:29;;;;;;;12.23;6.72;;;;;;;10.69;100.00;102051.31;5073028;28;20068;-56
2022/10/27 04:52:59;;;;;;;14.27;6.65;;;;;;;10.68;100.00;102052.22;5072952;28;20127;-58
2022/10/27 04:55:28;;;;;;;11.48;6.53;;;;;;;10.67;100.00;102047.03;5072706;28;20130;-56
2022/10/27 04:57:57;;;;;;;9.82;6.72;;;;;;;10.65;100.00;102052.38;5073095;28;20491;-56
2022/10/27 05:00:27;;;;;;;8.75;6.28;;;;;;;10.60;100.00;102055.19;5070336;28;20055;-57
2022/10/27 05:03:04;;;;;;;10.05;6.53;;;;;;;10.58;100.00;102057.06;5069272;28;20048;-56
2022/10/27 05:05:32;;;;;;;11.32;6.60;;;;;;;10.59;100.00;102045.63;5072918;28;20048;-56
2022/10/27 05:08:02;;;;;;;10.15;6.30;;;;;;;10.54;100.00;102055.50;5070941;28;20051;-57
2022/10/27 05:10:32;;;;;;;11.02;6.10;;;;;;;10.49;100.00;102049.59;5067248;28;20836;-56
2022/10/27 05:13:00;;;;;;;9.15;5.93;;;;;;;10.46;100.00;102047.09;5070794;28;20053;-56
2022/10/27 05:15:29;;;;;;;11.40;5.57;;;;;;;10.47;100.00;102054.06;5072219;28;20446;-57
2022/10/27 05:17:57;;;;;;;10.70;6.60;;;;;;;10.44;100.00;102056.81;5068849;28;20143;-56
2022/10/27 05:20:26;;;;;;;9.55;6.20;;;;;;;10.38;100.00;102044.81;5069906;28;20056;-56
2022/10/27 05:22:55;;;;;;;10.30;5.80;;;;;;;10.36;100.00;102048.44;5070174;28;20114;-56
2022/10/27 05:25:25;;;;;;;12.13;5.95;;;;;;;10.31;100.00;102052.09;5066593;28;20032;-57
2022/10/27 05:27:53;;;;;;;11.77;6.28;;;;;;;10.32;100.00;102045.91;5068353;28;20060;-56
2022/10/27 05:30:22;;;;;;;9.98;6.00;;;;;;;10.34;100.00;102050.25;5068770;28;20052;-56
2022/10/27 05:32:50;;;;;;;10.27;5.70;;;;;;;10.28;100.00;102044.34;5068661;28;20143;-51
2022/10/27 05:35:18;;;;;;;11.77;6.55;;;;;;;10.26;100.00;102046.19;5069845;28;20047;-48
2022/10/27 05:37:47;;;;;;;9.75;5.47;;;;;;;10.25;100.00;102036.59;5072374;28;20056;-51
2022/10/27 05:40:16;;;;;;;9.73;5.97;;;;;;;10.17;100.00;102046.63;5072445;28;20097;-52
2022/10/27 05:42:51;;;;;;;9.82;5.78;;;;;;;10.19;100.00;102042.13;5072329;28;20048;-52
2022/10/27 05:45:21;;;;;;;10.55;5.03;;;;;;;10.18;100.00;102044.81;5072321;28;20041;-51
2022/10/27 05:47:56;;;;;;;9.30;5.65;;;;;;;10.19;100.00;102047.38;5071911;28;20090;-50
2022/10/27 05:50:24;;;;;;;14.25;6.38;;;;;;;10.18;100.00;102045.66;5072382;28;20052;-49
2022/10/27 05:52:54;;;;;;;11.20;6.10;;;;;;;10.18;100.00;102050.09;5068241;28;20064;-57
2022/10/27 05:55:23;;;;;;;12.77;6.07;;;;;;;10.17;100.00;102046.63;5067066;28;20041;-57
2022/10/27 05:57:55;;;;;;;10.15;5.03;;;;;;;10.16;100.00;102044.91;5067869;28;20479;-56
2022/10/27 06:00:25;;;;;;;10.00;5.88;;;;;;;10.13;100.00;102043.25;5068502;28;20040;-57
2022/10/27 06:02:56;;;;;;;10.30;5.70;;;;;;;10.14;100.00;102044.09;5070625;28;20037;-52
2022/10/27 06:05:25;;;;;;;9.73;5.18;;;;;;;10.10;100.00;102047.78;5072301;28;20544;-50
2022/10/27 06:07:55;;;;;;;9.48;4.95;;;;;;;10.08;100.00;102041.75;5071691;28;20048;-50
2022/10/27 06:10:23;;;;;;;12.02;5.53;;;;;;;10.08;100.00;102047.00;5072012;28;20036;-50
2022/10/27 06:12:52;;;;;;;11.02;5.68;;;;;;;10.06;100.00;102051.47;5071561;28;20044;-52
2022/10/27 06:15:20;;;;;;;10.38;5.50;;;;;;;10.04;100.00;102042.81;5071860;28;20372;-51
2022/10/27 06:17:52;;;;;;;10.95;5.10;;;;;;;10.04;100.00;102048.06;5071727;28;20054;-56
2022/10/27 06:20:21;;;;;;;10.80;5.30;;;;;;;10.04;100.00;102040.19;5072187;28;20124;-49
2022/10/27 06:22:51;;;;;;;9.23;5.40;;;;;;;10.02;100.00;102042.00;5071820;28;20080;-49
2022/10/27 06:25:21;;;;;;;10.90;5.38;;;;;;;10.02;100.00;102042.00;5071777;28;20561;-51
2022/10/27 06:27:49;;;;;;;13.35;6.45;;;;;;;10.01;100.00;102035.03;5071631;28;20051;-48
2022/10/27 06:30:19;;;;;;;16.05;6.70;;;;;;;10.02;100.00;102034.13;5071763;28;20127;-51
2022/10/27 06:32:46;;;;;;;14.30;6.88;;;;;;;10.04;100.00;102037.56;5071616;28;20052;-49
2022/10/27 06:35:15;;;;;;;12.52;6.30;;;;;;;10.02;100.00;102031.50;5071645;28;20090;-56
2022/10/27 06:37:45;;;;;;;14.00;6.60;;;;;;;10.06;100.00;102033.06;5072839;28;20562;-56
2022/10/27 06:40:15;;;;;;;15.02;7.32;;;;;;;10.11;100.00;102036.34;5070180;28;20059;-56
2022/10/27 06:42:45;;;;;;;12.82;6.88;;;;;;;10.14;100.00;102029.19;5071570;28;20580;-56
2022/10/27 06:45:34;;;;;;;13.88;7.68;;;;;;;10.17;100.00;102037.84;5075460;28;20098;-56
2022/10/27 06:48:02;;;;;;;13.00;7.93;;;;;;;10.24;100.00;102036.66;5075266;28;20479;-56
2022/10/27 06:50:30;;;;;;;16.15;8.38;;;;;;;10.27;100.00;102032.13;5073410;28;20494;-56
2022/10/27 06:53:00;;;;;;;15.27;8.77;;;;;;;10.31;100.00;102040.72;5071453;28;20070;-57
2022/10/27 06:55:28;;;;;;;14.77;8.23;;;;;;;10.35;100.00;102037.06;5073436;28;20075;-56
2022/10/27 06:57:58;;;;;;;24.00;9.05;;;;;;;10.41;100.00;102035.94;5075196;28;20051;-56
2022/10/27 07:00:26;;;;;;;61.10;14.48;;;;;;;10.45;100.00;102038.34;5073807;28;20048;-56
2022/10/27 07:02:54;;;;;;;71.38;15.07;;;;;;;10.57;100.00;102044.84;5070869;28;20530;-56
2022/10/27 07:05:22;;;;;;;47.47;12.05;;;;;;;10.62;100.00;102042.84;5071164;28;20040;-56
2022/10/27 07:07:52;;;;;;;46.00;11.65;;;;;;;10.67;100.00;102042.63;5070731;28;20055;-56
2022/10/27 07:10:21;;;;;;;34.38;10.60;;;;;;;10.71;100.00;102033.66;5068329;28;20056;-56
2022/10/27 07:12:54;;;;;;;31.42;10.13;;;;;;;10.69;100.00;102030.25;5070947;28;20040;-56
2022/10/27 07:15:24;;;;;;;19.30;9.07;;;;;;;10.70;100.00;102025.84;5070850;28;20128;-57
2022/10/27 07:18:00;;;;;;;20.02;8.82;;;;;;;10.75;100.00;102029.13;5071111;28;20057;-51
2022/10/27 07:20:29;;;;;;;16.77;8.25;;;;;;;10.78;100.00;102028.97;5070687;28;20055;-48
2022/10/27 07:22:57;;;;;;;15.88;8.38;;;;;;;10.84;100.00;102020.78;5074757;28;20045;-48
2022/10/27 07:25:26;;;;;;;15.35;8.32;;;;;;;10.88;100.00;102013.59;5074702;28;20131;-49
2022/10/27 07:27:54;;;;;;;16.13;7.70;;;;;;;10.95;100.00;102009.75;5074781;28;20061;-50
2022/10/27 07:30:27;;;;;;;13.98;8.23;;;;;;;11.04;100.00;102004.03;5074538;28;20046;-48
2022/10/27 07:32:57;;;;;;;13.02;7.90;;;;;;;11.09;100.00;101998.56;5074633;28;20101;-49
2022/10/27 07:35:26;;;;;;;14.77;8.05;;;;;;;11.13;100.00;102003.56;5074527;28;20072;-49
2022/10/27 07:37:54;;;;;;;11.18;6.93;;;;;;;11.21;100.00;101999.72;5074424;28;20060;-51
2022/10/27 07:40:24;;;;;;;15.77;7.53;;;;;;;11.28;100.00;101998.50;5074574;28;20102;-51
2022/10/27 07:43:00;;;;;;;17.00;7.90;;;;;;;11.37;100.00;102010.34;5074406;28;20123;-49
2022/10/27 07:45:38;;;;;;;13.55;7.95;;;;;;;11.48;100.00;102014.16;5074876;28;20490;-48
2022/10/27 07:48:08;;;;;;;12.65;7.82;;;;;;;11.56;100.00;102005.00;5073750;28;20071;-56
2022/10/27 07:50:36;;;;;;;12.07;7.75;;;;;;;11.76;100.00;102010.09;5074278;28;20104;-57
2022/10/27 07:53:04;;;;;;;13.55;7.88;;;;;;;11.90;100.00;102013.81;5071545;28;20048;-57
2022/10/27 07:55:35;;;;;;;14.20;7.70;;;;;;;11.97;100.00;102015.22;5069342;28;20044;-57
2022/10/27 07:58:06;;;;;;;13.95;7.25;;;;;;;12.05;100.00;102015.66;5069911;28;20059;-57
2022/10/27 08:00:39;;;;;;;12.35;6.65;;;;;;;12.25;100.00;102019.88;5073458;28;20049;-57
2022/10/27 08:03:10;;;;;;;13.90;7.17;;;;;;;12.30;100.00;102019.66;5069793;28;20044;-52
2022/10/27 08:05:38;;;;;;;11.02;6.30;;;;;;;12.33;100.00;102019.47;5070568;28;20492;-50
2022/10/27 08:08:07;;;;;;;13.48;6.15;;;;;;;12.39;100.00;102018.28;5071920;28;20040;-51
2022/10/27 08:10:38;;;;;;;11.55;6.50;;;;;;;12.48;100.00;102023.06;5073436;28;20442;-51
2022/10/27 08:13:07;;;;;;;11.30;6.60;;;;;;;12.56;100.00;102006.84;5072628;28;20063;-57
2022/10/27 08:15:38;;;;;;;12.10;6.38;;;;;;;12.70;100.00;102011.34;5070569;28;20127;-57
2022/10/27 08:18:07;;;;;;;12.90;6.28;;;;;;;12.87;100.00;102015.66;5069889;28;20128;-57
2022/10/27 08:20:38;;;;;;;9.88;5.60;;;;;;;13.00;100.00;102006.13;5068947;28;20048;-57
2022/10/27 08:23:08;;;;;;;13.13;6.20;;;;;;;13.16;100.00;102004.28;5070008;28;20052;-57
2022/10/27 08:25:37;;;;;;;12.73;5.53;;;;;;;13.29;100.00;102011.50;5073768;28;20457;-57
2022/10/27 08:28:05;;;;;;;11.30;5.13;;;;;;;13.48;100.00;102009.53;5073426;28;20054;-51
2022/10/27 08:30:34;;;;;;;13.15;5.60;;;;;;;13.65;100.00;102010.31;5073813;28;20369;-50
2022/10/27 08:33:12;;;;;;;10.00;4.97;;;;;;;13.88;100.00;102010.72;5072338;28;20139;-50
2022/10/27 08:35:41;;;;;;;10.73;4.97;;;;;;;14.00;100.00;102009.97;5073224;28;20036;-53
2022/10/27 08:38:12;;;;;;;13.15;6.20;;;;;;;14.21;100.00;102010.44;5073223;28;20609;-53
2022/10/27 08:40:55;;;;;;;8.77;4.93;;;;;;;14.31;100.00;102011.56;5073346;28;20360;-51
2022/10/27 08:43:53;;;;;;;12.30;4.30;;;;;;;14.37;100.00;102013.84;5073423;28;20036;-50
2022/10/27 08:46:27;;;;;;;9.13;4.18;;;;;;;14.49;100.00;102011.34;5073376;28;20043;-51
2022/10/27 08:49:02;;;;;;;9.23;4.50;;;;;;;14.49;100.00;102017.53;5073183;28;20049;-52
2022/10/27 08:51:32;;;;;;;10.13;4.35;;;;;;;14.54;100.00;102011.91;5070703;28;20061;-53
2022/10/27 08:54:01;;;;;;;9.77;4.63;;;;;;;14.63;100.00;102015.81;5067901;28;20048;-53
2022/10/27 08:56:38;;;;;;;10.52;4.18;;;;;;;14.77;100.00;102014.94;5072319;28;20045;-50
2022/10/27 08:59:15;;;;;;;11.00;4.90;;;;;;;14.90;100.00;102018.47;5072092;28;20044;-54
2022/10/27 09:01:52;;;;;;;8.00;4.05;;;;;;;15.00;100.00;102018.75;5073407;28;20052;-53
2022/10/27 09:04:36;;;;;;;8.32;4.55;;;;;;;15.11;100.00;102018.88;5071535;28;20052;-54
2022/10/27 09:07:16;;;;;;;10.18;4.57;;;;;;;15.19;100.00;102002.47;5072850;28;20097;-54
2022/10/27 09:09:51;;;;;;;8.77;4.03;;;;;;;15.23;100.00;101996.03;5072016;28;20490;-54
2022/10/27 09:12:42;;;;;;;8.73;4.25;;;;;;;15.38;100.00;101983.56;5072770;28;20055;-55
2022/10/27 09:15:36;;;;;;;10.57;4.55;;;;;;;15.48;100.00;101984.59;5072231;28;20052;-54
2022/10/27 09:18:09;;;;;;;7.25;3.35;;;;;;;15.54;100.00;101975.38;5072276;28;20048;-54
2022/10/27 09:20:43;;;;;;;;;;;;;;;15.55;100.00;101983.22;5072563;28;20506;-53
2022/10/27 09:23:15;;;;;;;10.35;3.90;;;;;;;15.68;100.00;101983.25;5072115;28;19932;-53
2022/10/27 09:25:45;;;;;;;12.05;4.22;;;;;;;15.84;100.00;101976.91;5072820;28;20510;-55
2022/10/27 09:28:20;;;;;;;10.93;3.80;;;;;;;15.99;100.00;101978.50;5072645;28;20457;-54
2022/10/27 09:30:51;;;;;;;8.30;3.03;;;;;;;16.18;100.00;101979.84;5072480;28;20078;-51
2022/10/27 09:33:26;;;;;;;10.77;3.33;;;;;;;16.36;100.00;101962.63;5072624;28;20040;-55
2022/10/27 09:35:56;;;;;;;10.07;3.08;;;;;;;16.66;100.00;101965.78;5072252;28;20105;-53
2022/10/27 09:38:27;;;;;;;11.70;3.70;;;;;;;16.79;100.00;101953.31;5072426;28;20118;-55
2022/10/27 09:40:58;;;;;;;8.25;3.20;;;;;;;16.95;100.00;101947.75;5072510;28;20109;-59
2022/10/27 09:43:26;;;;;;;8.90;3.10;;;;;;;17.10;100.00;101948.41;5072331;28;20083;-59
2022/10/27 09:46:06;;;;;;;9.68;3.00;;;;;;;17.31;100.00;101950.38;5070269;28;20101;-60
2022/10/27 09:48:35;;;;;;;7.18;2.83;;;;;;;17.43;100.00;101951.25;5068796;28;20040;-59
2022/10/27 09:51:14;;;;;;;6.95;2.72;;;;;;;17.72;100.00;101947.19;5068719;28;20115;-60
2022/10/27 09:53:46;;;;;;;7.47;2.90;;;;;;;17.78;100.00;101945.00;5067357;28;20059;-60
2022/10/27 09:56:18;;;;;;;7.10;3.22;;;;;;;18.08;100.00;101939.94;5068052;28;20075;-58
2022/10/27 09:58:56;;;;;;;8.27;2.75;;;;;;;18.14;100.00;101937.78;5068989;28;20047;-60
2022/10/27 10:01:26;;;;;;;8.60;2.65;;;;;;;18.24;100.00;101933.38;5068678;28;20460;-60
2022/10/27 10:04:04;;;;;;;8.80;2.70;;;;;;;18.27;100.00;101929.63;5068404;28;20088;-60
2022/10/27 10:06:42;;;;;;;7.55;2.20;;;;;;;18.42;100.00;101926.56;5069009;28;20407;-60
2022/10/27 10:09:22;;;;;;;7.05;2.50;;;;;;;18.48;100.00;101919.91;5065300;28;20044;-60
2022/10/27 10:11:51;;;;;;;8.32;2.60;;;;;;;18.48;100.00;101914.56;5072081;28;20388;-60
2022/10/27 10:14:22;;;;;;;8.35;2.75;;;;;;;18.60;100.00;101918.03;5076060;28;20402;-60
2022/10/27 10:16:52;;;;;;;7.63;2.30;;;;;;;18.61;100.00;101911.75;5076118;28;20041;-60
2022/10/27 10:19:24;;;;;;;6.75;2.22;;;;;;;18.62;100.00;101908.09;5072892;28;20557;-60
2022/10/27 10:21:56;;;;;;;11.77;2.35;;;;;;;18.70;100.00;101913.63;5072572;28;20418;-60
2022/10/27 10:24:27;;;;;;;6.32;2.05;;;;;;;18.95;100.00;101911.66;5071032;28;20093;-60
2022/10/27 10:26:58;;;;;;;6.57;2.15;;;;;;;19.05;100.00;101909.88;5072264;28;20127;-60
2022/10/27 10:29:29;;;;;;;6.93;2.10;;;;;;;19.36;100.00;101912.59;5072227;28;20364;-60
2022/10/27 10:32:12;;;;;;;8.35;2.30;;;;;;;19.73;100.00;101919.25;5071777;28;20132;-60
2022/10/27 10:34:43;;;;;;;7.35;2.20;;;;;;;19.96;100.00;101916.38;5075319;28;20689;-61
2022/10/27 10:37:37;;;;;;;6.95;2.15;;;;;;;20.47;100.00;101915.38;5072019;28;20041;-59
2022/10/27 10:40:26;;;;;;;6.45;1.80;;;;;;;20.73;100.00;101904.16;5071532;28;20055;-61
2022/10/27 10:43:03;;;;;;;6.60;1.92;;;;;;;20.93;100.00;101892.47;5074521;28;20049;-61
2022/10/27 10:45:34;;;;;;;6.57;1.80;;;;;;;20.98;100.00;101885.84;5071361;28;20048;-61
2022/10/27 10:48:07;;;;;;;6.07;1.73;;;;;;;20.74;100.00;101876.47;5073398;28;20044;-61
2022/10/27 10:50:46;;;;;;;6.10;1.75;;;;;;;20.62;100.00;101874.91;5075374;28;20041;-61
2022/10/27 10:53:24;;;;;;;6.75;1.70;;;;;;;20.65;100.00;101869.25;5070784;28;20549;-61
2022/10/27 10:56:02;;;;;;;9.13;1.73;;;;;;;20.83;100.00;101859.53;5070493;28;20056;-61
2022/10/27 10:58:35;;;;;;;6.40;1.40;;;;;;;20.55;100.00;101850.56;5070863;28;20522;-61
2022/10/27 11:01:05;;;;;;;5.40;1.40;;;;;;;20.38;100.00;101860.97;5070822;28;20051;-61
2022/10/27 11:03:36;;;;;;;5.10;1.45;;;;;;;20.45;100.00;101845.22;5070583;28;20049;-61
2022/10/27 11:06:06;;;;;;;5.03;1.33;;;;;;;20.41;100.00;101844.66;5074874;28;20052;-55
2022/10/27 11:08:42;;;;;;;5.28;1.48;;;;;;;20.35;100.00;101861.22;5075037;28;20368;-56
2022/10/27 11:11:19;;;;;;;8.02;1.70;;;;;;;20.25;100.00;101852.38;5070855;28;20064;-57
2022/10/27 11:13:52;;;;;;;5.38;1.55;;;;;;;20.42;100.00;101865.06;5071231;28;20101;-57
2022/10/27 11:16:20;;;;;;;;;;;;;;;20.51;100.00;101868.69;5075742;28;20588;-56
2022/10/27 11:18:53;;;;;;;8.82;1.92;;;;;;;20.58;100.00;101859.13;5073190;28;19967;-57
2022/10/27 11:21:30;;;;;;;6.63;1.60;;;;;;;20.52;100.00;101850.81;5071079;28;20407;-57
2022/10/27 11:24:06;;;;;;;4.53;1.58;;;;;;;20.53;100.00;101863.19;5068848;28;20056;-56
2022/10/27 11:26:38;;;;;;;5.47;1.52;;;;;;;20.63;100.00;101853.38;5074776;28;20048;-56
2022/10/27 11:29:19;;;;;;;5.57;1.73;;;;;;;20.83;100.00;101858.72;5074950;28;20531;-56
2022/10/27 11:31:57;;;;;;;5.32;1.50;;;;;;;20.90;100.00;101854.47;5073749;28;20517;-57
2022/10/27 11:34:35;;;;;;;5.20;1.45;;;;;;;21.19;100.00;101850.91;5074807;28;20088;-61